Terminal Aerodrome Forecast
Issued by NWS

Home | Current Version | Previous Version | Text Only | Print | Product List | Glossary On
Versions: 1 2 3 4 5 6 7 8 9 10 11 12 13
000
FTUS45 KRIW 070500
TAFWRL
TAF
KWRL 070522Z 0706/0806 16009KT P6SM SKC
     FM071300 VRB05KT P6SM SCT250
     FM080200 VRB05KT P6SM BKN100=

USA.gov is the U.S. government's official web portal to all federal, state and local government web resources and services.